sensor_id;sensor_type;location;lat;lon;timestamp;temperature;humidity
2899;DHT22;1459;50.864;6.438;2022-10-13T00:02:26;9.70;99.90
2899;DHT22;1459;50.864;6.438;2022-10-13T00:04:53;9.70;99.90
2899;DHT22;1459;50.864;6.438;2022-10-13T00:07:21;9.60;99.90
2899;DHT22;1459;50.864;6.438;2022-10-13T00:09:53;9.60;99.90
2899;DHT22;1459;50.864;6.438;2022-10-13T00:12:20;9.60;99.90
2899;DHT22;1459;50.864;6.438;2022-10-13T00:14:47;9.60;99.90
2899;DHT22;1459;50.864;6.438;2022-10-13T00:17:14;9.60;99.90
2899;DHT22;1459;50.864;6.438;2022-10-13T00:19:42;9.60;99.90
2899;DHT22;1459;50.864;6.438;2022-10-13T00:22:09;9.60;99.90
2899;DHT22;1459;50.864;6.438;2022-10-13T00:24:39;9.60;99.90
2899;DHT22;1459;50.864;6.438;2022-10-13T00:27:08;9.60;99.90
2899;DHT22;1459;50.864;6.438;2022-10-13T00:29:35;9.60;99.90
2899;DHT22;1459;50.864;6.438;2022-10-13T00:32:02;9.60;99.90
2899;DHT22;1459;50.864;6.438;2022-10-13T00:34:29;9.60;99.90
2899;DHT22;1459;50.864;6.438;2022-10-13T00:36:56;9.70;99.90
2899;DHT22;1459;50.864;6.438;2022-10-13T00:39:23;9.70;99.90
2899;DHT22;1459;50.864;6.438;2022-10-13T00:41:51;9.70;99.90
2899;DHT22;1459;50.864;6.438;2022-10-13T00:47:25;9.70;99.90
2899;DHT22;1459;50.864;6.438;2022-10-13T00:49:54;9.70;99.90
2899;DHT22;1459;50.864;6.438;2022-10-13T00:52:22;9.70;99.90
2899;DHT22;1459;50.864;6.438;2022-10-13T00:54:52;9.70;99.90
2899;DHT22;1459;50.864;6.438;2022-10-13T00:57:21;9.70;99.90
2899;DHT22;1459;50.864;6.438;2022-10-13T00:59:49;9.70;99.90
2899;DHT22;1459;50.864;6.438;2022-10-13T01:02:16;9.70;99.90
2899;DHT22;1459;50.864;6.438;2022-10-13T01:04:46;9.70;99.90
2899;DHT22;1459;50.864;6.438;2022-10-13T01:07:15;9.70;99.90
2899;DHT22;1459;50.864;6.438;2022-10-13T01:09:44;9.60;99.90
2899;DHT22;1459;50.864;6.438;2022-10-13T01:12:23;9.60;99.90
2899;DHT22;1459;50.864;6.438;2022-10-13T01:14:54;9.60;99.90
2899;DHT22;1459;50.864;6.438;2022-10-13T01:17:28;9.60;99.90
2899;DHT22;1459;50.864;6.438;2022-10-13T01:20:16;9.60;99.90
2899;DHT22;1459;50.864;6.438;2022-10-13T01:22:59;9.60;99.90
2899;DHT22;1459;50.864;6.438;2022-10-13T01:25:48;9.60;99.90
2899;DHT22;1459;50.864;6.438;2022-10-13T01:28:32;9.60;99.90
2899;DHT22;1459;50.864;6.438;2022-10-13T01:31:12;9.60;99.90
2899;DHT22;1459;50.864;6.438;2022-10-13T01:33:43;9.70;99.90
2899;DHT22;1459;50.864;6.438;2022-10-13T01:36:19;9.70;99.90
2899;DHT22;1459;50.864;6.438;2022-10-13T01:38:54;9.70;99.90
2899;DHT22;1459;50.864;6.438;2022-10-13T01:41:26;9.70;99.90
2899;DHT22;1459;50.864;6.438;2022-10-13T01:44:01;9.80;99.90
2899;DHT22;1459;50.864;6.438;2022-10-13T01:46:33;9.90;99.90
2899;DHT22;1459;50.864;6.438;2022-10-13T01:49:04;9.90;99.90
2899;DHT22;1459;50.864;6.438;2022-10-13T01:51:34;10.00;99.90
2899;DHT22;1459;50.864;6.438;2022-10-13T01:54:01;10.10;99.90
2899;DHT22;1459;50.864;6.438;2022-10-13T01:56:28;10.10;99.90
2899;DHT22;1459;50.864;6.438;2022-10-13T01:58:57;10.20;99.90
2899;DHT22;1459;50.864;6.438;2022-10-13T02:01:33;10.20;99.90
2899;DHT22;1459;50.864;6.438;2022-10-13T02:04:11;10.20;99.90
2899;DHT22;1459;50.864;6.438;2022-10-13T02:06:44;10.30;99.90
2899;DHT22;1459;50.864;6.438;2022-10-13T02:09:17;10.30;99.90
2899;DHT22;1459;50.864;6.438;2022-10-13T02:11:50;10.30;99.90
2899;DHT22;1459;50.864;6.438;2022-10-13T02:14:21;10.40;99.90
2899;DHT22;1459;50.864;6.438;2022-10-13T02:16:52;10.40;99.90
2899;DHT22;1459;50.864;6.438;2022-10-13T02:19:20;10.40;99.90
2899;DHT22;1459;50.864;6.438;2022-10-13T02:21:48;10.50;99.90
2899;DHT22;1459;50.864;6.438;2022-10-13T02:24:15;10.50;99.90
2899;DHT22;1459;50.864;6.438;2022-10-13T02:26:42;10.50;99.90
2899;DHT22;1459;50.864;6.438;2022-10-13T02:29:11;10.60;99.90
2899;DHT22;1459;50.864;6.438;2022-10-13T02:31:40;10.60;99.90
2899;DHT22;1459;50.864;6.438;2022-10-13T02:34:09;10.60;99.90
2899;DHT22;1459;50.864;6.438;2022-10-13T02:36:36;10.60;99.90
2899;DHT22;1459;50.864;6.438;2022-10-13T02:39:04;10.60;99.90
2899;DHT22;1459;50.864;6.438;2022-10-13T02:41:31;10.60;99.90
2899;DHT22;1459;50.864;6.438;2022-10-13T02:43:58;10.60;99.90
2899;DHT22;1459;50.864;6.438;2022-10-13T02:46:25;10.70;99.90
2899;DHT22;1459;50.864;6.438;2022-10-13T02:48:54;10.70;99.90
2899;DHT22;1459;50.864;6.438;2022-10-13T02:51:22;10.80;99.90
2899;DHT22;1459;50.864;6.438;2022-10-13T02:53:49;10.80;99.90
2899;DHT22;1459;50.864;6.438;2022-10-13T02:56:16;10.90;99.90
2899;DHT22;1459;50.864;6.438;2022-10-13T02:58:43;10.90;99.90
2899;DHT22;1459;50.864;6.438;2022-10-13T03:01:12;10.90;99.90
2899;DHT22;1459;50.864;6.438;2022-10-13T03:03:39;11.00;99.90
2899;DHT22;1459;50.864;6.438;2022-10-13T03:06:07;10.90;99.90
2899;DHT22;1459;50.864;6.438;2022-10-13T03:08:36;10.90;99.90
2899;DHT22;1459;50.864;6.438;2022-10-13T03:11:03;10.90;99.90
2899;DHT22;1459;50.864;6.438;2022-10-13T03:13:30;10.90;99.90
2899;DHT22;1459;50.864;6.438;2022-10-13T03:15:57;10.90;99.90
2899;DHT22;1459;50.864;6.438;2022-10-13T03:18:24;11.00;99.90
2899;DHT22;1459;50.864;6.438;2022-10-13T03:20:55;11.00;99.90
2899;DHT22;1459;50.864;6.438;2022-10-13T03:23:23;11.10;99.90
2899;DHT22;1459;50.864;6.438;2022-10-13T03:25:52;11.10;99.90
2899;DHT22;1459;50.864;6.438;2022-10-13T03:28:19;11.10;99.90
2899;DHT22;1459;50.864;6.438;2022-10-13T03:30:47;11.10;99.90
2899;DHT22;1459;50.864;6.438;2022-10-13T03:33:14;11.20;99.90
2899;DHT22;1459;50.864;6.438;2022-10-13T03:35:41;11.20;99.90
2899;DHT22;1459;50.864;6.438;2022-10-13T03:38:09;11.20;99.90
2899;DHT22;1459;50.864;6.438;2022-10-13T03:40:36;11.20;99.90
2899;DHT22;1459;50.864;6.438;2022-10-13T03:43:04;11.20;99.90
2899;DHT22;1459;50.864;6.438;2022-10-13T03:45:32;11.30;99.90
2899;DHT22;1459;50.864;6.438;2022-10-13T03:47:59;11.20;99.90
2899;DHT22;1459;50.864;6.438;2022-10-13T03:50:26;11.30;99.90
2899;DHT22;1459;50.864;6.438;2022-10-13T03:52:53;11.30;99.90
2899;DHT22;1459;50.864;6.438;2022-10-13T03:55:20;11.30;99.90
2899;DHT22;1459;50.864;6.438;2022-10-13T03:57:47;11.30;99.90
2899;DHT22;1459;50.864;6.438;2022-10-13T04:00:16;11.30;99.90
2899;DHT22;1459;50.864;6.438;2022-10-13T04:02:43;11.30;99.90
2899;DHT22;1459;50.864;6.438;2022-10-13T04:05:10;11.30;99.90
2899;DHT22;1459;50.864;6.438;2022-10-13T04:07:37;11.40;99.90
2899;DHT22;1459;50.864;6.438;2022-10-13T04:10:04;11.30;99.90
2899;DHT22;1459;50.864;6.438;2022-10-13T04:12:31;11.30;99.90
2899;DHT22;1459;50.864;6.438;2022-10-13T04:14:58;11.30;99.90
2899;DHT22;1459;50.864;6.438;2022-10-13T04:17:27;11.40;99.90
2899;DHT22;1459;50.864;6.438;2022-10-13T04:19:54;11.40;99.90
2899;DHT22;1459;50.864;6.438;2022-10-13T04:22:21;11.40;99.90
2899;DHT22;1459;50.864;6.438;2022-10-13T04:24:48;11.40;99.90
2899;DHT22;1459;50.864;6.438;2022-10-13T04:27:15;11.40;99.90
2899;DHT22;1459;50.864;6.438;2022-10-13T04:29:44;11.40;99.90
2899;DHT22;1459;50.864;6.438;2022-10-13T04:32:11;11.40;99.90
2899;DHT22;1459;50.864;6.438;2022-10-13T04:34:39;11.40;99.90
2899;DHT22;1459;50.864;6.438;2022-10-13T04:37:07;11.40;99.90
2899;DHT22;1459;50.864;6.438;2022-10-13T04:39:34;11.40;99.90
2899;DHT22;1459;50.864;6.438;2022-10-13T04:42:01;11.40;99.90
2899;DHT22;1459;50.864;6.438;2022-10-13T04:44:28;11.40;99.90
2899;DHT22;1459;50.864;6.438;2022-10-13T04:46:55;11.40;99.90
2899;DHT22;1459;50.864;6.438;2022-10-13T04:49:23;11.40;99.90
2899;DHT22;1459;50.864;6.438;2022-10-13T04:51:51;11.40;99.90
2899;DHT22;1459;50.864;6.438;2022-10-13T04:54:18;11.40;99.90
2899;DHT22;1459;50.864;6.438;2022-10-13T04:56:46;11.40;99.90
2899;DHT22;1459;50.864;6.438;2022-10-13T04:59:14;11.40;99.90
2899;DHT22;1459;50.864;6.438;2022-10-13T05:01:41;11.40;99.90
2899;DHT22;1459;50.864;6.438;2022-10-13T05:04:09;11.50;99.90
2899;DHT22;1459;50.864;6.438;2022-10-13T05:06:38;11.50;99.90
2899;DHT22;1459;50.864;6.438;2022-10-13T05:09:09;11.50;99.90
2899;DHT22;1459;50.864;6.438;2022-10-13T05:11:40;11.50;99.90
2899;DHT22;1459;50.864;6.438;2022-10-13T05:14:07;11.50;99.90
2899;DHT22;1459;50.864;6.438;2022-10-13T05:16:34;11.50;99.90
2899;DHT22;1459;50.864;6.438;2022-10-13T05:19:02;11.50;99.90
2899;DHT22;1459;50.864;6.438;2022-10-13T05:21:29;11.50;99.90
2899;DHT22;1459;50.864;6.438;2022-10-13T05:23:57;11.50;99.90
2899;DHT22;1459;50.864;6.438;2022-10-13T05:26:28;11.60;99.90
2899;DHT22;1459;50.864;6.438;2022-10-13T05:28:57;11.60;99.90
2899;DHT22;1459;50.864;6.438;2022-10-13T05:31:26;11.60;99.90
2899;DHT22;1459;50.864;6.438;2022-10-13T05:33:53;11.60;99.90
2899;DHT22;1459;50.864;6.438;2022-10-13T05:36:23;11.60;99.90
2899;DHT22;1459;50.864;6.438;2022-10-13T05:38:50;11.60;99.90
2899;DHT22;1459;50.864;6.438;2022-10-13T05:41:18;11.60;99.90
2899;DHT22;1459;50.864;6.438;2022-10-13T05:43:47;11.60;99.90
2899;DHT22;1459;50.864;6.438;2022-10-13T05:46:14;11.50;99.90
2899;DHT22;1459;50.864;6.438;2022-10-13T05:48:41;11.50;99.90
2899;DHT22;1459;50.864;6.438;2022-10-13T05:51:11;11.50;99.90
2899;DHT22;1459;50.864;6.438;2022-10-13T05:53:42;11.50;99.90
2899;DHT22;1459;50.864;6.438;2022-10-13T05:56:14;11.50;99.90
2899;DHT22;1459;50.864;6.438;2022-10-13T05:58:44;11.50;99.90
2899;DHT22;1459;50.864;6.438;2022-10-13T06:01:18;11.50;99.90
2899;DHT22;1459;50.864;6.438;2022-10-13T06:03:48;11.50;99.90
2899;DHT22;1459;50.864;6.438;2022-10-13T06:06:16;11.50;99.90
2899;DHT22;1459;50.864;6.438;2022-10-13T06:08:44;11.50;99.90
2899;DHT22;1459;50.864;6.438;2022-10-13T06:11:11;11.40;99.90
2899;DHT22;1459;50.864;6.438;2022-10-13T06:13:39;11.50;99.90
2899;DHT22;1459;50.864;6.438;2022-10-13T06:16:09;11.50;99.90
2899;DHT22;1459;50.864;6.438;2022-10-13T06:18:37;11.50;99.90
2899;DHT22;1459;50.864;6.438;2022-10-13T06:21:05;11.50;99.90
2899;DHT22;1459;50.864;6.438;2022-10-13T06:23:32;11.50;99.90
2899;DHT22;1459;50.864;6.438;2022-10-13T06:25:59;11.50;99.90
2899;DHT22;1459;50.864;6.438;2022-10-13T06:28:26;11.60;99.90
2899;DHT22;1459;50.864;6.438;2022-10-13T06:30:53;11.60;99.90
2899;DHT22;1459;50.864;6.438;2022-10-13T06:33:21;11.70;99.90
2899;DHT22;1459;50.864;6.438;2022-10-13T06:35:50;11.70;99.90
2899;DHT22;1459;50.864;6.438;2022-10-13T06:38:17;11.80;99.90
2899;DHT22;1459;50.864;6.438;2022-10-13T06:40:44;11.90;99.90
2899;DHT22;1459;50.864;6.438;2022-10-13T06:43:12;12.00;99.90
2899;DHT22;1459;50.864;6.438;2022-10-13T06:45:39;12.10;99.90
2899;DHT22;1459;50.864;6.438;2022-10-13T06:48:06;12.20;99.90
2899;DHT22;1459;50.864;6.438;2022-10-13T06:50:35;12.30;99.90
2899;DHT22;1459;50.864;6.438;2022-10-13T06:53:03;12.40;99.90
2899;DHT22;1459;50.864;6.438;2022-10-13T06:55:30;12.50;99.90
2899;DHT22;1459;50.864;6.438;2022-10-13T06:57:57;12.60;99.90
2899;DHT22;1459;50.864;6.438;2022-10-13T07:00:24;12.60;99.90
2899;DHT22;1459;50.864;6.438;2022-10-13T07:02:51;12.70;99.90
2899;DHT22;1459;50.864;6.438;2022-10-13T07:05:18;12.80;99.90
2899;DHT22;1459;50.864;6.438;2022-10-13T07:07:45;12.80;99.90
2899;DHT22;1459;50.864;6.438;2022-10-13T07:10:14;12.90;99.90
2899;DHT22;1459;50.864;6.438;2022-10-13T07:12:41;13.00;99.90
2899;DHT22;1459;50.864;6.438;2022-10-13T07:15:08;13.10;99.90
2899;DHT22;1459;50.864;6.438;2022-10-13T07:17:36;13.20;99.90
2899;DHT22;1459;50.864;6.438;2022-10-13T07:20:04;13.20;99.90
2899;DHT22;1459;50.864;6.438;2022-10-13T07:22:32;13.30;99.90
2899;DHT22;1459;50.864;6.438;2022-10-13T07:24:59;13.30;99.90
2899;DHT22;1459;50.864;6.438;2022-10-13T07:27:27;13.30;99.90
2899;DHT22;1459;50.864;6.438;2022-10-13T07:29:54;13.40;99.90
2899;DHT22;1459;50.864;6.438;2022-10-13T07:32:21;13.40;99.90
2899;DHT22;1459;50.864;6.438;2022-10-13T07:34:51;13.50;99.90
2899;DHT22;1459;50.864;6.438;2022-10-13T07:37:18;13.60;99.90
2899;DHT22;1459;50.864;6.438;2022-10-13T07:39:46;13.70;99.90
2899;DHT22;1459;50.864;6.438;2022-10-13T07:42:13;13.80;99.90
2899;DHT22;1459;50.864;6.438;2022-10-13T07:44:41;13.90;99.90
2899;DHT22;1459;50.864;6.438;2022-10-13T07:47:08;14.00;99.90
2899;DHT22;1459;50.864;6.438;2022-10-13T07:49:36;14.10;99.90
2899;DHT22;1459;50.864;6.438;2022-10-13T07:52:03;14.30;99.90
2899;DHT22;1459;50.864;6.438;2022-10-13T07:54:30;14.40;99.90
2899;DHT22;1459;50.864;6.438;2022-10-13T07:56:57;14.60;99.90
2899;DHT22;1459;50.864;6.438;2022-10-13T07:59:24;14.80;99.90
2899;DHT22;1459;50.864;6.438;2022-10-13T08:01:54;14.90;99.90
2899;DHT22;1459;50.864;6.438;2022-10-13T08:04:21;15.10;99.90
2899;DHT22;1459;50.864;6.438;2022-10-13T08:06:48;15.20;99.90
2899;DHT22;1459;50.864;6.438;2022-10-13T08:09:15;15.30;99.90
2899;DHT22;1459;50.864;6.438;2022-10-13T08:11:42;15.40;99.90
2899;DHT22;1459;50.864;6.438;2022-10-13T08:14:11;15.50;99.90
2899;DHT22;1459;50.864;6.438;2022-10-13T08:16:38;15.60;99.90
2899;DHT22;1459;50.864;6.438;2022-10-13T08:19:10;15.70;99.90
2899;DHT22;1459;50.864;6.438;2022-10-13T08:21:37;15.80;99.90
2899;DHT22;1459;50.864;6.438;2022-10-13T08:24:05;16.00;99.90
2899;DHT22;1459;50.864;6.438;2022-10-13T08:26:32;16.10;99.90
2899;DHT22;1459;50.864;6.438;2022-10-13T08:28:59;16.20;99.90
2899;DHT22;1459;50.864;6.438;2022-10-13T08:31:26;16.30;99.90
2899;DHT22;1459;50.864;6.438;2022-10-13T08:33:53;16.40;99.90
2899;DHT22;1459;50.864;6.438;2022-10-13T08:36:22;16.40;99.90
2899;DHT22;1459;50.864;6.438;2022-10-13T08:38:50;16.50;99.90
2899;DHT22;1459;50.864;6.438;2022-10-13T08:41:19;16.60;99.90
2899;DHT22;1459;50.864;6.438;2022-10-13T08:43:48;16.70;99.90
2899;DHT22;1459;50.864;6.438;2022-10-13T08:46:20;16.70;99.90
2899;DHT22;1459;50.864;6.438;2022-10-13T08:48:49;16.90;99.90
2899;DHT22;1459;50.864;6.438;2022-10-13T08:51:20;16.90;99.90
2899;DHT22;1459;50.864;6.438;2022-10-13T08:53:48;17.00;99.90
2899;DHT22;1459;50.864;6.438;2022-10-13T08:56:18;17.00;99.90
2899;DHT22;1459;50.864;6.438;2022-10-13T08:58:48;17.10;99.90
2899;DHT22;1459;50.864;6.438;2022-10-13T09:01:18;17.10;99.90
2899;DHT22;1459;50.864;6.438;2022-10-13T09:03:51;17.20;99.90
2899;DHT22;1459;50.864;6.438;2022-10-13T09:06:22;17.30;99.90
2899;DHT22;1459;50.864;6.438;2022-10-13T09:08:55;17.40;99.90
2899;DHT22;1459;50.864;6.438;2022-10-13T09:11:26;17.50;99.90
2899;DHT22;1459;50.864;6.438;2022-10-13T09:13:54;17.60;99.90
2899;DHT22;1459;50.864;6.438;2022-10-13T09:16:26;17.70;99.90
2899;DHT22;1459;50.864;6.438;2022-10-13T09:18:53;17.70;99.90
2899;DHT22;1459;50.864;6.438;2022-10-13T09:21:23;17.80;99.90
2899;DHT22;1459;50.864;6.438;2022-10-13T09:23:51;17.90;99.90
2899;DHT22;1459;50.864;6.438;2022-10-13T09:26:21;18.00;99.90
2899;DHT22;1459;50.864;6.438;2022-10-13T09:28:49;18.00;99.90
2899;DHT22;1459;50.864;6.438;2022-10-13T09:31:23;18.10;99.90
2899;DHT22;1459;50.864;6.438;2022-10-13T09:33:57;18.10;99.90
2899;DHT22;1459;50.864;6.438;2022-10-13T09:36:26;18.10;99.90
2899;DHT22;1459;50.864;6.438;2022-10-13T09:39:09;18.20;99.90
2899;DHT22;1459;50.864;6.438;2022-10-13T09:41:39;18.20;99.90
2899;DHT22;1459;50.864;6.438;2022-10-13T09:44:12;18.10;99.90
2899;DHT22;1459;50.864;6.438;2022-10-13T09:46:47;18.10;99.90
2899;DHT22;1459;50.864;6.438;2022-10-13T09:49:28;18.10;99.90
2899;DHT22;1459;50.864;6.438;2022-10-13T09:52:02;18.10;99.90
2899;DHT22;1459;50.864;6.438;2022-10-13T09:54:37;18.00;99.90
2899;DHT22;1459;50.864;6.438;2022-10-13T09:57:13;18.00;99.90
2899;DHT22;1459;50.864;6.438;2022-10-13T09:59:45;18.00;99.90
2899;DHT22;1459;50.864;6.438;2022-10-13T10:02:19;18.00;99.90
2899;DHT22;1459;50.864;6.438;2022-10-13T10:04:49;18.00;99.90
2899;DHT22;1459;50.864;6.438;2022-10-13T10:07:21;18.10;99.90
2899;DHT22;1459;50.864;6.438;2022-10-13T10:09:53;18.10;99.90
2899;DHT22;1459;50.864;6.438;2022-10-13T10:12:22;18.10;99.90
2899;DHT22;1459;50.864;6.438;2022-10-13T10:14:52;18.20;99.90
2899;DHT22;1459;50.864;6.438;2022-10-13T10:17:24;18.20;99.90
2899;DHT22;1459;50.864;6.438;2022-10-13T10:20:02;18.30;99.90
2899;DHT22;1459;50.864;6.438;2022-10-13T10:22:41;18.20;99.90
2899;DHT22;1459;50.864;6.438;2022-10-13T10:25:29;18.20;99.90
2899;DHT22;1459;50.864;6.438;2022-10-13T10:31:25;17.90;99.90
2899;DHT22;1459;50.864;6.438;2022-10-13T10:34:05;17.90;99.90
2899;DHT22;1459;50.864;6.438;2022-10-13T10:36:42;17.80;99.90
2899;DHT22;1459;50.864;6.438;2022-10-13T10:39:20;17.90;99.90
2899;DHT22;1459;50.864;6.438;2022-10-13T10:41:57;17.80;99.90
2899;DHT22;1459;50.864;6.438;2022-10-13T10:44:30;17.70;99.90
2899;DHT22;1459;50.864;6.438;2022-10-13T10:47:01;17.70;99.90
2899;DHT22;1459;50.864;6.438;2022-10-13T10:49:32;17.60;99.90
2899;DHT22;1459;50.864;6.438;2022-10-13T10:52:05;17.50;99.90
2899;DHT22;1459;50.864;6.438;2022-10-13T10:54:40;17.40;99.90
2899;DHT22;1459;50.864;6.438;2022-10-13T10:57:17;17.40;99.90
2899;DHT22;1459;50.864;6.438;2022-10-13T10:59:52;17.50;99.90
2899;DHT22;1459;50.864;6.438;2022-10-13T11:02:40;17.50;99.90
2899;DHT22;1459;50.864;6.438;2022-10-13T11:05:09;17.50;99.90
2899;DHT22;1459;50.864;6.438;2022-10-13T11:07:55;17.50;99.90
2899;DHT22;1459;50.864;6.438;2022-10-13T11:10:25;17.40;99.90
2899;DHT22;1459;50.864;6.438;2022-10-13T11:13:25;17.40;99.90
2899;DHT22;1459;50.864;6.438;2022-10-13T11:15:52;17.30;99.90
2899;DHT22;1459;50.864;6.438;2022-10-13T11:19:01;17.30;99.90
2899;DHT22;1459;50.864;6.438;2022-10-13T11:24:59;17.50;99.90
2899;DHT22;1459;50.864;6.438;2022-10-13T11:27:40;17.60;99.90
2899;DHT22;1459;50.864;6.438;2022-10-13T11:30:43;17.50;99.90
2899;DHT22;1459;50.864;6.438;2022-10-13T11:36:54;17.30;99.90
2899;DHT22;1459;50.864;6.438;2022-10-13T11:42:48;17.30;99.90
2899;DHT22;1459;50.864;6.438;2022-10-13T11:45:37;17.40;99.90
2899;DHT22;1459;50.864;6.438;2022-10-13T11:48:36;17.40;99.90
2899;DHT22;1459;50.864;6.438;2022-10-13T11:51:14;17.40;99.90
2899;DHT22;1459;50.864;6.438;2022-10-13T11:53:52;17.30;99.90
2899;DHT22;1459;50.864;6.438;2022-10-13T11:56:21;17.30;99.90
2899;DHT22;1459;50.864;6.438;2022-10-13T11:58:50;17.30;99.90
2899;DHT22;1459;50.864;6.438;2022-10-13T12:01:17;17.30;99.90
2899;DHT22;1459;50.864;6.438;2022-10-13T12:03:45;17.30;99.90
2899;DHT22;1459;50.864;6.438;2022-10-13T12:06:24;17.20;99.90
2899;DHT22;1459;50.864;6.438;2022-10-13T12:08:59;17.30;99.90
2899;DHT22;1459;50.864;6.438;2022-10-13T12:11:28;17.40;99.90
2899;DHT22;1459;50.864;6.438;2022-10-13T12:13:59;17.50;99.90
2899;DHT22;1459;50.864;6.438;2022-10-13T12:16:26;17.60;99.90
2899;DHT22;1459;50.864;6.438;2022-10-13T12:19:05;17.70;99.90
2899;DHT22;1459;50.864;6.438;2022-10-13T12:21:33;17.70;99.90
2899;DHT22;1459;50.864;6.438;2022-10-13T12:24:06;17.80;99.90
2899;DHT22;1459;50.864;6.438;2022-10-13T12:26:34;17.80;99.90
2899;DHT22;1459;50.864;6.438;2022-10-13T12:29:04;17.80;99.90
2899;DHT22;1459;50.864;6.438;2022-10-13T12:31:39;17.80;99.90
2899;DHT22;1459;50.864;6.438;2022-10-13T12:34:17;17.80;99.90
2899;DHT22;1459;50.864;6.438;2022-10-13T12:36:46;17.70;99.90
2899;DHT22;1459;50.864;6.438;2022-10-13T12:39:18;17.70;99.90
2899;DHT22;1459;50.864;6.438;2022-10-13T12:41:46;17.60;99.90
2899;DHT22;1459;50.864;6.438;2022-10-13T12:44:19;17.70;99.90
2899;DHT22;1459;50.864;6.438;2022-10-13T12:46:48;17.70;99.90
2899;DHT22;1459;50.864;6.438;2022-10-13T12:49:20;17.70;99.90
2899;DHT22;1459;50.864;6.438;2022-10-13T12:51:48;17.80;99.90
2899;DHT22;1459;50.864;6.438;2022-10-13T12:54:22;17.90;99.90
2899;DHT22;1459;50.864;6.438;2022-10-13T12:56:52;17.90;99.90
2899;DHT22;1459;50.864;6.438;2022-10-13T12:59:23;18.00;99.90
2899;DHT22;1459;50.864;6.438;2022-10-13T13:01:55;18.00;99.90
2899;DHT22;1459;50.864;6.438;2022-10-13T13:04:30;18.00;99.90
2899;DHT22;1459;50.864;6.438;2022-10-13T13:06:59;17.90;99.90
2899;DHT22;1459;50.864;6.438;2022-10-13T13:09:27;17.90;99.90
2899;DHT22;1459;50.864;6.438;2022-10-13T13:12:20;17.80;99.90
2899;DHT22;1459;50.864;6.438;2022-10-13T13:14:49;17.80;99.90
2899;DHT22;1459;50.864;6.438;2022-10-13T13:17:28;17.70;99.90
2899;DHT22;1459;50.864;6.438;2022-10-13T13:19:55;17.70;99.90
2899;DHT22;1459;50.864;6.438;2022-10-13T13:22:24;17.70;99.90
2899;DHT22;1459;50.864;6.438;2022-10-13T13:24:51;17.60;99.90
2899;DHT22;1459;50.864;6.438;2022-10-13T13:27:23;17.50;99.90
2899;DHT22;1459;50.864;6.438;2022-10-13T13:29:52;17.50;99.90
2899;DHT22;1459;50.864;6.438;2022-10-13T13:32:20;17.40;99.90
2899;DHT22;1459;50.864;6.438;2022-10-13T13:34:48;17.30;99.90
2899;DHT22;1459;50.864;6.438;2022-10-13T13:37:22;17.30;99.90
2899;DHT22;1459;50.864;6.438;2022-10-13T13:39:50;17.20;99.90
2899;DHT22;1459;50.864;6.438;2022-10-13T13:42:17;17.10;99.90
2899;DHT22;1459;50.864;6.438;2022-10-13T13:44:44;17.10;99.90
2899;DHT22;1459;50.864;6.438;2022-10-13T13:47:16;17.10;99.90
2899;DHT22;1459;50.864;6.438;2022-10-13T13:49:44;17.20;99.90
2899;DHT22;1459;50.864;6.438;2022-10-13T13:52:11;17.10;99.90
2899;DHT22;1459;50.864;6.438;2022-10-13T13:54:38;17.10;99.90
2899;DHT22;1459;50.864;6.438;2022-10-13T13:57:05;17.10;99.90
2899;DHT22;1459;50.864;6.438;2022-10-13T13:59:33;17.10;99.90
2899;DHT22;1459;50.864;6.438;2022-10-13T14:02:00;17.00;99.90
2899;DHT22;1459;50.864;6.438;2022-10-13T14:04:28;16.90;99.90
2899;DHT22;1459;50.864;6.438;2022-10-13T14:06:55;16.90;99.90
2899;DHT22;1459;50.864;6.438;2022-10-13T14:09:22;16.90;99.90
2899;DHT22;1459;50.864;6.438;2022-10-13T14:11:49;16.80;99.90
2899;DHT22;1459;50.864;6.438;2022-10-13T14:14:17;16.80;99.90
2899;DHT22;1459;50.864;6.438;2022-10-13T14:16:44;16.80;99.90
2899;DHT22;1459;50.864;6.438;2022-10-13T14:19:11;16.80;99.90
2899;DHT22;1459;50.864;6.438;2022-10-13T14:21:39;16.80;99.90
2899;DHT22;1459;50.864;6.438;2022-10-13T14:24:07;16.90;99.90
2899;DHT22;1459;50.864;6.438;2022-10-13T14:26:35;16.90;99.90
2899;DHT22;1459;50.864;6.438;2022-10-13T14:29:02;16.90;99.90
2899;DHT22;1459;50.864;6.438;2022-10-13T14:31:30;16.90;99.90
2899;DHT22;1459;50.864;6.438;2022-10-13T14:33:58;16.90;99.90
2899;DHT22;1459;50.864;6.438;2022-10-13T14:36:27;16.90;99.90
2899;DHT22;1459;50.864;6.438;2022-10-13T14:38:55;16.90;99.90
2899;DHT22;1459;50.864;6.438;2022-10-13T14:41:23;16.90;99.90
2899;DHT22;1459;50.864;6.438;2022-10-13T14:43:51;16.90;99.90
2899;DHT22;1459;50.864;6.438;2022-10-13T14:46:19;16.90;99.90
2899;DHT22;1459;50.864;6.438;2022-10-13T14:48:47;16.90;99.90
2899;DHT22;1459;50.864;6.438;2022-10-13T14:51:15;16.90;99.90
2899;DHT22;1459;50.864;6.438;2022-10-13T14:53:43;16.90;99.90
2899;DHT22;1459;50.864;6.438;2022-10-13T14:56:17;16.80;99.90
2899;DHT22;1459;50.864;6.438;2022-10-13T14:58:45;16.80;99.90
2899;DHT22;1459;50.864;6.438;2022-10-13T15:01:13;16.80;99.90
2899;DHT22;1459;50.864;6.438;2022-10-13T15:03:40;16.80;99.90
2899;DHT22;1459;50.864;6.438;2022-10-13T15:06:09;16.80;99.90
2899;DHT22;1459;50.864;6.438;2022-10-13T15:08:38;16.70;99.90
2899;DHT22;1459;50.864;6.438;2022-10-13T15:11:06;16.70;99.90
2899;DHT22;1459;50.864;6.438;2022-10-13T15:13:35;16.60;99.90
2899;DHT22;1459;50.864;6.438;2022-10-13T15:16:02;16.60;99.90
2899;DHT22;1459;50.864;6.438;2022-10-13T15:18:30;16.50;99.90
2899;DHT22;1459;50.864;6.438;2022-10-13T15:20:57;16.50;99.90
2899;DHT22;1459;50.864;6.438;2022-10-13T15:23:27;16.40;99.90
2899;DHT22;1459;50.864;6.438;2022-10-13T15:25:56;16.40;99.90
2899;DHT22;1459;50.864;6.438;2022-10-13T15:28:25;16.40;99.90
2899;DHT22;1459;50.864;6.438;2022-10-13T15:30:54;16.30;99.90
2899;DHT22;1459;50.864;6.438;2022-10-13T15:33:21;16.30;99.90
2899;DHT22;1459;50.864;6.438;2022-10-13T15:35:49;16.30;99.90
2899;DHT22;1459;50.864;6.438;2022-10-13T15:38:17;16.20;99.90
2899;DHT22;1459;50.864;6.438;2022-10-13T15:40:45;16.10;99.90
2899;DHT22;1459;50.864;6.438;2022-10-13T15:43:13;16.00;99.90
2899;DHT22;1459;50.864;6.438;2022-10-13T15:45:40;16.00;99.90
2899;DHT22;1459;50.864;6.438;2022-10-13T15:48:10;15.90;99.90
2899;DHT22;1459;50.864;6.438;2022-10-13T15:50:38;15.90;99.90
2899;DHT22;1459;50.864;6.438;2022-10-13T15:53:06;15.80;99.90
2899;DHT22;1459;50.864;6.438;2022-10-13T15:55:33;15.80;99.90
2899;DHT22;1459;50.864;6.438;2022-10-13T15:58:00;15.80;99.90
2899;DHT22;1459;50.864;6.438;2022-10-13T16:00:28;15.70;99.90
2899;DHT22;1459;50.864;6.438;2022-10-13T16:02:56;15.70;99.90
2899;DHT22;1459;50.864;6.438;2022-10-13T16:05:26;15.60;99.90
2899;DHT22;1459;50.864;6.438;2022-10-13T16:07:52;15.60;99.90
2899;DHT22;1459;50.864;6.438;2022-10-13T16:10:20;15.60;99.90
2899;DHT22;1459;50.864;6.438;2022-10-13T16:12:46;15.60;99.90
2899;DHT22;1459;50.864;6.438;2022-10-13T16:15:15;15.60;99.90
2899;DHT22;1459;50.864;6.438;2022-10-13T16:17:42;15.60;99.90
2899;DHT22;1459;50.864;6.438;2022-10-13T16:20:11;15.50;99.90
2899;DHT22;1459;50.864;6.438;2022-10-13T16:22:39;15.50;99.90
2899;DHT22;1459;50.864;6.438;2022-10-13T16:25:07;15.50;99.90
2899;DHT22;1459;50.864;6.438;2022-10-13T16:27:35;15.50;99.90
2899;DHT22;1459;50.864;6.438;2022-10-13T16:30:03;15.50;99.90
2899;DHT22;1459;50.864;6.438;2022-10-13T16:32:35;15.50;99.90
2899;DHT22;1459;50.864;6.438;2022-10-13T16:35:03;15.50;99.90
2899;DHT22;1459;50.864;6.438;2022-10-13T16:37:32;15.40;99.90